createdAt,value
2022-10-13T00:00:00.309Z,40.6
2022-10-13T00:01:00.333Z,41.1
2022-10-13T00:02:00.376Z,40.3
2022-10-13T00:03:00.643Z,39.7
2022-10-13T00:04:00.283Z,39.7
2022-10-13T00:05:00.324Z,40.3
2022-10-13T00:06:00.313Z,39.6
2022-10-13T00:07:00.379Z,39.6
2022-10-13T00:08:00.286Z,39.8
2022-10-13T00:09:00.374Z,39.7
2022-10-13T00:10:00.316Z,39.6
2022-10-13T00:11:00.286Z,39.3
2022-10-13T00:12:00.295Z,39.5
2022-10-13T00:13:00.299Z,39.6
2022-10-13T00:14:00.299Z,39.1
2022-10-13T00:15:00.443Z,39.3
2022-10-13T00:16:00.403Z,40.2
2022-10-13T00:17:00.361Z,40.0
2022-10-13T00:18:00.319Z,39.8
2022-10-13T00:19:00.320Z,40.0
2022-10-13T00:20:00.301Z,39.7
2022-10-13T00:21:00.430Z,39.5
2022-10-13T00:22:00.408Z,39.0
2022-10-13T00:23:00.313Z,39.0
2022-10-13T00:24:00.315Z,39.1
2022-10-13T00:25:00.305Z,38.8
2022-10-13T00:26:00.317Z,39.2
2022-10-13T00:27:00.442Z,38.9
2022-10-13T00:28:00.299Z,39.6
2022-10-13T00:29:00.368Z,39.8
2022-10-13T00:30:00.306Z,39.8
2022-10-13T00:31:00.355Z,40.3
2022-10-13T00:32:00.309Z,40.2
2022-10-13T00:33:00.464Z,39.4
2022-10-13T00:34:00.349Z,39.8
2022-10-13T00:35:00.309Z,39.3
2022-10-13T00:36:00.339Z,39.5
2022-10-13T00:37:00.505Z,39.8
2022-10-13T00:38:00.371Z,39.9
2022-10-13T00:39:00.479Z,40.3
2022-10-13T00:40:00.299Z,39.6
2022-10-13T00:41:00.302Z,39.2
2022-10-13T00:42:00.294Z,38.8
2022-10-13T00:43:00.284Z,38.7
2022-10-13T00:44:00.328Z,38.8
2022-10-13T00:45:00.457Z,39.1
2022-10-13T00:46:00.332Z,39.4
2022-10-13T00:47:00.295Z,39.4
2022-10-13T00:48:00.302Z,39.4
2022-10-13T00:49:00.313Z,39.9
2022-10-13T00:50:00.311Z,39.1
2022-10-13T00:51:00.545Z,39.6
2022-10-13T00:52:00.535Z,39.5
2022-10-13T00:53:00.301Z,39.4
2022-10-13T00:54:00.352Z,39.4
2022-10-13T00:55:00.396Z,39.4
2022-10-13T00:56:00.333Z,39.6
2022-10-13T00:57:00.513Z,39.8
2022-10-13T00:58:04.960Z,39.7
2022-10-13T00:59:00.309Z,40.4
2022-10-13T01:00:00.353Z,39.2
2022-10-13T01:01:00.373Z,40.0
2022-10-13T01:02:00.296Z,39.8
2022-10-13T01:03:00.419Z,39.7
2022-10-13T01:04:00.285Z,39.8
2022-10-13T01:05:00.315Z,39.1
2022-10-13T01:06:00.336Z,39.8
2022-10-13T01:07:00.474Z,39.4
2022-10-13T01:08:00.302Z,39.8
2022-10-13T01:09:00.517Z,39.5
2022-10-13T01:10:00.312Z,40.2
2022-10-13T01:11:00.314Z,40.4
2022-10-13T01:12:00.296Z,40.4
2022-10-13T01:13:00.294Z,40.3
2022-10-13T01:14:00.294Z,40.4
2022-10-13T01:15:00.441Z,40.0
2022-10-13T01:16:00.309Z,40.2
2022-10-13T01:17:00.323Z,40.2
2022-10-13T01:18:00.375Z,40.7
2022-10-13T01:19:00.315Z,40.9
2022-10-13T01:20:00.313Z,40.4
2022-10-13T01:21:00.579Z,41.0
2022-10-13T01:22:00.336Z,40.6
2022-10-13T01:23:00.341Z,41.1
2022-10-13T01:24:00.289Z,41.0
2022-10-13T01:25:00.297Z,41.0
2022-10-13T01:26:00.311Z,40.6
2022-10-13T01:27:00.863Z,40.8
2022-10-13T01:28:00.310Z,40.7
2022-10-13T01:29:00.311Z,41.2
2022-10-13T01:30:00.285Z,41.0
2022-10-13T01:31:00.297Z,41.3
2022-10-13T01:32:00.298Z,40.9
2022-10-13T01:33:00.430Z,41.5
2022-10-13T01:34:00.327Z,40.8
2022-10-13T01:35:00.333Z,41.2
2022-10-13T01:36:00.378Z,41.0
2022-10-13T01:37:00.369Z,41.0
2022-10-13T01:38:00.458Z,41.6
2022-10-13T01:39:00.447Z,41.7
2022-10-13T01:40:00.287Z,41.5
2022-10-13T01:41:00.374Z,41.2
2022-10-13T01:42:00.331Z,41.5
2022-10-13T01:43:00.282Z,41.6
2022-10-13T01:44:00.320Z,42.0
2022-10-13T01:45:00.457Z,41.9
2022-10-13T01:46:00.322Z,41.8
2022-10-13T01:47:00.370Z,42.1
2022-10-13T01:48:00.288Z,41.9
2022-10-13T01:49:00.312Z,42.1
2022-10-13T01:50:00.326Z,42.2
2022-10-13T01:51:00.444Z,42.5
2022-10-13T01:52:00.319Z,42.3
2022-10-13T01:53:00.426Z,42.9
2022-10-13T01:54:00.307Z,43.4
2022-10-13T01:55:00.300Z,42.1
2022-10-13T01:56:00.296Z,42.2
2022-10-13T01:57:00.413Z,41.7
2022-10-13T01:58:00.344Z,41.7
2022-10-13T01:59:00.312Z,41.5
2022-10-13T02:00:00.335Z,41.5
2022-10-13T02:01:00.448Z,42.1
2022-10-13T02:02:00.333Z,42.1
2022-10-13T02:03:00.519Z,42.0
2022-10-13T02:04:00.307Z,41.7
2022-10-13T02:05:00.346Z,41.1
2022-10-13T02:06:00.317Z,41.6
2022-10-13T02:07:00.291Z,41.3
2022-10-13T02:08:00.891Z,40.7
2022-10-13T02:09:00.517Z,40.7
2022-10-13T02:10:00.301Z,40.8
2022-10-13T02:11:00.325Z,41.3
2022-10-13T02:12:00.286Z,41.1
2022-10-13T02:13:00.344Z,42.2
2022-10-13T02:14:00.351Z,41.0
2022-10-13T02:15:00.499Z,40.4
2022-10-13T02:16:00.381Z,40.3
2022-10-13T02:17:00.290Z,40.9
2022-10-13T02:18:00.285Z,40.2
2022-10-13T02:19:00.339Z,40.1
2022-10-13T02:20:00.276Z,39.1
2022-10-13T02:21:00.473Z,38.8
2022-10-13T02:22:00.304Z,39.3
2022-10-13T02:23:00.280Z,39.5
2022-10-13T02:24:00.445Z,40.3
2022-10-13T02:25:00.311Z,38.9
2022-10-13T02:26:00.298Z,39.9
2022-10-13T02:27:00.509Z,39.4
2022-10-13T02:28:00.316Z,40.3
2022-10-13T02:29:00.319Z,39.5
2022-10-13T02:30:00.341Z,40.2
2022-10-13T02:31:00.343Z,40.2
2022-10-13T02:32:00.394Z,39.2
2022-10-13T02:33:00.483Z,40.2
2022-10-13T02:34:00.336Z,39.7
2022-10-13T02:35:00.360Z,40.6
2022-10-13T02:36:00.411Z,40.9
2022-10-13T02:37:00.314Z,40.0
2022-10-13T02:38:00.299Z,40.4
2022-10-13T02:39:00.425Z,40.3
2022-10-13T02:40:00.391Z,39.9
2022-10-13T02:41:00.308Z,39.8
2022-10-13T02:42:00.302Z,39.7
2022-10-13T02:43:00.301Z,41.5
2022-10-13T02:44:00.363Z,41.1
2022-10-13T02:45:00.538Z,40.4
2022-10-13T02:46:00.291Z,39.0
2022-10-13T02:47:00.339Z,39.4
2022-10-13T02:48:00.366Z,39.1
2022-10-13T02:49:00.327Z,38.9
2022-10-13T02:50:00.305Z,38.8
2022-10-13T02:51:00.523Z,38.6
2022-10-13T02:52:00.297Z,38.8
2022-10-13T02:53:00.316Z,38.7
2022-10-13T02:54:00.305Z,38.6
2022-10-13T02:55:00.594Z,38.9
2022-10-13T02:56:00.286Z,39.2
2022-10-13T02:57:00.430Z,39.3
2022-10-13T02:58:00.312Z,39.2
2022-10-13T02:59:00.300Z,39.4
2022-10-13T03:00:00.305Z,39.6
2022-10-13T03:01:00.384Z,39.8
2022-10-13T03:02:00.312Z,39.4
2022-10-13T03:03:00.432Z,39.6
2022-10-13T03:04:00.311Z,39.9
2022-10-13T03:05:00.295Z,40.3
2022-10-13T03:06:00.359Z,39.6
2022-10-13T03:07:00.284Z,40.0
2022-10-13T03:08:00.307Z,39.7
2022-10-13T03:09:00.501Z,40.5
2022-10-13T03:10:00.385Z,40.1
2022-10-13T03:11:00.306Z,39.7
2022-10-13T03:12:00.293Z,39.8
2022-10-13T03:13:00.281Z,40.0
2022-10-13T03:14:00.295Z,39.6
2022-10-13T03:15:00.432Z,40.2
2022-10-13T03:16:00.284Z,39.9
2022-10-13T03:17:00.281Z,39.8
2022-10-13T03:18:00.281Z,39.6
2022-10-13T03:19:00.289Z,40.6
2022-10-13T03:20:00.327Z,40.2
2022-10-13T03:21:00.456Z,39.8
2022-10-13T03:22:00.377Z,39.6
2022-10-13T03:23:00.345Z,39.5
2022-10-13T03:24:00.382Z,39.3
2022-10-13T03:25:00.412Z,39.4
2022-10-13T03:26:00.411Z,39.3
2022-10-13T03:27:00.480Z,39.4
2022-10-13T03:28:00.463Z,39.9
2022-10-13T03:29:00.308Z,39.9
2022-10-13T03:30:00.356Z,40.0
2022-10-13T03:31:00.383Z,39.9
2022-10-13T03:32:00.277Z,40.2
2022-10-13T03:33:00.487Z,39.5
2022-10-13T03:34:00.325Z,39.8
2022-10-13T03:35:00.354Z,39.1
2022-10-13T03:36:00.304Z,39.3
2022-10-13T03:37:00.295Z,38.5
2022-10-13T03:38:00.320Z,38.7
2022-10-13T03:39:00.442Z,38.4
2022-10-13T03:40:00.540Z,38.3
2022-10-13T03:41:00.300Z,38.3
2022-10-13T03:42:00.287Z,38.3
2022-10-13T03:43:00.286Z,38.8
2022-10-13T03:44:00.356Z,39.4
2022-10-13T03:45:00.488Z,39.5
2022-10-13T03:46:00.289Z,38.9
2022-10-13T03:47:00.283Z,39.0
2022-10-13T03:48:00.396Z,39.1
2022-10-13T03:49:00.373Z,39.2
2022-10-13T03:50:00.279Z,39.1
2022-10-13T03:51:00.428Z,38.9
2022-10-13T03:52:00.275Z,39.4
2022-10-13T03:53:00.262Z,39.1
2022-10-13T03:54:00.263Z,38.9
2022-10-13T03:55:00.291Z,38.5
2022-10-13T03:56:00.423Z,39.4
2022-10-13T03:57:00.401Z,38.9
2022-10-13T03:58:00.294Z,38.2
2022-10-13T03:59:00.261Z,38.8
2022-10-13T04:00:00.268Z,38.7
2022-10-13T04:01:00.268Z,39.3
2022-10-13T04:02:00.323Z,38.9
2022-10-13T04:03:00.403Z,38.3
2022-10-13T04:04:00.353Z,38.5
2022-10-13T04:05:00.265Z,37.7
2022-10-13T04:06:00.319Z,37.8
2022-10-13T04:07:00.272Z,37.4
2022-10-13T04:08:00.427Z,37.7
2022-10-13T04:09:00.803Z,37.6
2022-10-13T04:10:00.263Z,37.5
2022-10-13T04:11:00.269Z,37.5
2022-10-13T04:12:00.411Z,37.4
2022-10-13T04:13:00.428Z,37.4
2022-10-13T04:14:00.276Z,37.4
2022-10-13T04:15:00.531Z,37.0
2022-10-13T04:16:00.263Z,37.2
2022-10-13T04:17:00.267Z,36.9
2022-10-13T04:18:00.261Z,36.9
2022-10-13T04:19:00.266Z,36.9
2022-10-13T04:20:00.248Z,36.4
2022-10-13T04:21:00.392Z,36.6
2022-10-13T04:22:00.266Z,36.3
2022-10-13T04:23:00.276Z,37.3
2022-10-13T04:24:00.259Z,37.3
2022-10-13T04:25:00.273Z,37.4
2022-10-13T04:26:00.272Z,37.3
2022-10-13T04:27:00.408Z,37.0
2022-10-13T04:28:00.436Z,37.1
2022-10-13T04:29:00.319Z,36.8
2022-10-13T04:30:00.265Z,37.0
2022-10-13T04:31:00.285Z,37.1
2022-10-13T04:32:00.261Z,36.8
2022-10-13T04:33:00.329Z,36.8
2022-10-13T04:34:00.327Z,36.7
2022-10-13T04:35:00.288Z,37.1
2022-10-13T04:36:00.295Z,36.9
2022-10-13T04:37:00.309Z,36.8
2022-10-13T04:38:00.307Z,36.8
2022-10-13T04:39:00.536Z,36.7
2022-10-13T04:40:00.322Z,37.0
2022-10-13T04:41:00.334Z,36.5
2022-10-13T04:42:00.256Z,36.4
2022-10-13T04:43:00.282Z,36.2
2022-10-13T04:44:00.388Z,35.9
2022-10-13T04:45:00.482Z,35.8
2022-10-13T04:46:00.269Z,35.6
2022-10-13T04:47:00.274Z,35.4
2022-10-13T04:48:00.252Z,35.0
2022-10-13T04:49:00.270Z,34.8
2022-10-13T04:50:00.314Z,34.4
2022-10-13T04:51:00.543Z,34.5
2022-10-13T04:52:00.257Z,34.3
2022-10-13T04:53:00.246Z,33.9
2022-10-13T04:54:00.275Z,33.7
2022-10-13T04:55:00.266Z,34.1
2022-10-13T04:56:00.267Z,33.7
2022-10-13T04:57:00.383Z,33.0
2022-10-13T04:58:00.250Z,32.4
2022-10-13T04:59:00.249Z,31.4
2022-10-13T05:00:00.348Z,30.9
2022-10-13T05:01:00.355Z,30.7
2022-10-13T05:02:00.269Z,30.1
2022-10-13T05:03:00.419Z,29.8
2022-10-13T05:04:00.246Z,29.6
2022-10-13T05:05:00.295Z,29.5
2022-10-13T05:06:00.251Z,29.1
2022-10-13T05:07:17.166Z,28.9
2022-10-13T05:08:00.251Z,28.8
2022-10-13T05:09:00.392Z,28.2
2022-10-13T05:10:00.342Z,27.8
2022-10-13T05:11:00.275Z,27.3
2022-10-13T05:12:00.271Z,27.0
2022-10-13T05:13:00.243Z,26.6
2022-10-13T05:14:00.248Z,25.3
2022-10-13T05:15:00.590Z,23.8
2022-10-13T05:16:00.374Z,23.8
2022-10-13T05:17:00.285Z,23.7
2022-10-13T05:18:00.350Z,24.3
2022-10-13T05:19:00.258Z,23.7
2022-10-13T05:20:00.335Z,23.2
2022-10-13T05:21:00.432Z,23.7
2022-10-13T05:22:00.254Z,24.0
2022-10-13T05:23:00.273Z,24.3
2022-10-13T05:24:00.350Z,24.8
2022-10-13T05:25:00.280Z,23.9
2022-10-13T05:26:00.272Z,24.2
2022-10-13T05:27:00.474Z,24.5
2022-10-13T05:28:00.308Z,24.8
2022-10-13T05:29:00.275Z,25.2
2022-10-13T05:30:00.310Z,25.4
2022-10-13T05:31:00.559Z,25.2
2022-10-13T05:32:00.311Z,25.0
2022-10-13T05:33:00.418Z,25.2
2022-10-13T05:34:00.284Z,25.6
2022-10-13T05:35:00.315Z,25.9
2022-10-13T05:36:00.305Z,26.2
2022-10-13T05:37:00.285Z,26.3
2022-10-13T05:38:00.284Z,26.5
2022-10-13T05:39:00.430Z,26.1
2022-10-13T05:40:00.303Z,25.8
2022-10-13T05:41:00.313Z,25.7
2022-10-13T05:42:00.333Z,25.4
2022-10-13T05:43:00.356Z,24.8
2022-10-13T05:44:00.366Z,24.2
2022-10-13T05:45:00.437Z,23.7
2022-10-13T05:46:00.516Z,22.7
2022-10-13T05:47:04.955Z,21.4
2022-10-13T05:48:00.298Z,20.5
2022-10-13T05:49:00.343Z,18.8
2022-10-13T05:50:00.316Z,17.8
2022-10-13T05:51:00.541Z,17.8
2022-10-13T05:52:00.302Z,19.2
2022-10-13T05:53:00.312Z,19.4
2022-10-13T05:54:00.342Z,19.7
2022-10-13T05:55:00.306Z,20.2
2022-10-13T05:56:00.289Z,20.1
2022-10-13T05:57:00.433Z,19.1
2022-10-13T05:58:00.292Z,17.2
2022-10-13T05:59:00.326Z,16.6
2022-10-13T06:00:00.350Z,15.9
2022-10-13T06:01:00.452Z,15.0
2022-10-13T06:02:00.423Z,13.9
2022-10-13T06:03:00.475Z,13.1
2022-10-13T06:04:00.287Z,12.6
2022-10-13T06:05:00.338Z,12.2
2022-10-13T06:06:00.321Z,11.6
2022-10-13T06:07:00.298Z,11.5
2022-10-13T06:08:00.310Z,11.6
2022-10-13T06:09:00.525Z,11.0
2022-10-13T06:10:00.287Z,10.7
2022-10-13T06:11:00.303Z,11.2
2022-10-13T06:12:00.303Z,11.5
2022-10-13T06:13:00.309Z,11.8
2022-10-13T06:14:00.329Z,12.8
2022-10-13T06:15:00.473Z,13.1
2022-10-13T06:16:00.473Z,13.2
2022-10-13T06:17:00.320Z,13.9
2022-10-13T06:18:00.307Z,14.9
2022-10-13T06:19:00.308Z,15.2
2022-10-13T06:20:00.295Z,15.3
2022-10-13T06:21:00.453Z,14.5
2022-10-13T06:22:03.647Z,14.1
2022-10-13T06:23:00.361Z,13.1
2022-10-13T06:24:00.373Z,12.9
2022-10-13T06:25:00.317Z,12.6
2022-10-13T06:26:00.377Z,12.7
2022-10-13T06:27:00.650Z,12.7
2022-10-13T06:28:00.283Z,13.2
2022-10-13T06:29:00.382Z,13.9
2022-10-13T06:30:00.286Z,14.6
2022-10-13T06:31:00.417Z,15.0
2022-10-13T06:32:00.306Z,14.8
2022-10-13T06:33:00.465Z,15.3
2022-10-13T06:34:00.263Z,15.3
2022-10-13T06:35:00.288Z,15.7
2022-10-13T06:36:00.275Z,16.4
2022-10-13T06:37:00.291Z,18.1
2022-10-13T06:38:00.293Z,19.7
2022-10-13T06:39:00.476Z,20.3
2022-10-13T06:40:00.270Z,20.1
2022-10-13T06:41:00.250Z,20.0
2022-10-13T06:42:00.345Z,19.8
2022-10-13T06:43:00.306Z,20.8
2022-10-13T06:44:00.301Z,21.0
2022-10-13T06:45:00.389Z,21.3
2022-10-13T06:46:00.282Z,21.8
2022-10-13T06:47:00.405Z,22.0
2022-10-13T06:48:00.356Z,22.3
2022-10-13T06:49:00.303Z,22.2
2022-10-13T06:50:00.275Z,21.6
2022-10-13T06:51:00.539Z,20.7
2022-10-13T06:52:00.245Z,20.3
2022-10-13T06:53:00.294Z,19.2
2022-10-13T06:54:00.336Z,17.8
2022-10-13T06:55:00.305Z,16.5
2022-10-13T06:56:00.272Z,15.6
2022-10-13T06:57:00.474Z,14.9
2022-10-13T06:58:00.257Z,13.9
2022-10-13T06:59:00.245Z,12.8
2022-10-13T07:00:00.302Z,12.0
2022-10-13T07:01:00.431Z,11.4
2022-10-13T07:02:00.284Z,10.4
2022-10-13T07:03:00.431Z,11.2
2022-10-13T07:04:00.274Z,11.1
2022-10-13T07:05:00.312Z,11.1
2022-10-13T07:06:00.357Z,11.5
2022-10-13T07:07:00.297Z,11.5
2022-10-13T07:08:00.265Z,12.5
2022-10-13T07:09:00.505Z,11.9
2022-10-13T07:10:00.299Z,10.7
2022-10-13T07:11:00.295Z,10.4
2022-10-13T07:12:00.308Z,8.8
2022-10-13T07:13:00.358Z,8.6
2022-10-13T07:15:00.414Z,8.1
2022-10-13T07:16:00.297Z,8.5
2022-10-13T07:17:00.294Z,7.8
2022-10-13T07:18:00.399Z,7.9
2022-10-13T07:19:00.331Z,8.6
2022-10-13T07:20:03.732Z,8.4
2022-10-13T07:21:00.497Z,8.4
2022-10-13T07:22:00.304Z,7.9
2022-10-13T07:23:00.299Z,7.9
2022-10-13T07:24:00.621Z,8.7
2022-10-13T07:25:00.304Z,9.8
2022-10-13T07:26:00.349Z,10.0
2022-10-13T07:27:05.282Z,10.0
2022-10-13T07:28:00.303Z,10.9
2022-10-13T07:29:00.438Z,11.4
2022-10-13T07:30:00.301Z,11.4
2022-10-13T07:31:00.317Z,10.6
2022-10-13T07:32:00.300Z,9.4
2022-10-13T07:33:00.518Z,9.5
2022-10-13T07:34:00.291Z,9.0
2022-10-13T07:35:00.318Z,8.7
2022-10-13T07:36:00.428Z,8.5
2022-10-13T07:37:00.312Z,8.1
2022-10-13T07:38:00.308Z,7.4
2022-10-13T07:39:00.485Z,7.2
2022-10-13T07:40:00.294Z,6.7
2022-10-13T07:41:00.296Z,6.4
2022-10-13T07:42:00.300Z,5.9
2022-10-13T07:43:00.392Z,6.9
2022-10-13T07:44:00.322Z,7.6
2022-10-13T07:45:00.452Z,8.3
2022-10-13T07:46:00.370Z,8.8
2022-10-13T07:47:00.380Z,9.9
2022-10-13T07:48:00.457Z,9.4
2022-10-13T07:49:00.294Z,9.2
2022-10-13T07:50:00.323Z,9.6
2022-10-13T07:51:00.521Z,10.3
2022-10-13T07:52:00.300Z,10.6
2022-10-13T07:53:00.291Z,10.2
2022-10-13T07:54:00.310Z,10.4
2022-10-13T07:55:00.297Z,11.2
2022-10-13T07:56:00.332Z,11.2
2022-10-13T07:57:00.449Z,11.2
2022-10-13T07:58:00.327Z,11.3
2022-10-13T07:59:00.291Z,11.3
2022-10-13T08:00:00.315Z,11.8
2022-10-13T08:01:00.378Z,11.4
2022-10-13T08:02:00.414Z,11.6
2022-10-13T08:03:00.431Z,11.5
2022-10-13T08:04:00.332Z,11.1
2022-10-13T08:05:00.335Z,11.2
2022-10-13T08:06:00.308Z,11.0
2022-10-13T08:07:00.299Z,10.6
2022-10-13T08:08:00.321Z,10.1
2022-10-13T08:09:00.469Z,9.5
2022-10-13T08:10:00.303Z,9.1
2022-10-13T08:11:00.378Z,9.2
2022-10-13T08:12:00.768Z,9.4
2022-10-13T08:13:00.290Z,9.2
2022-10-13T08:14:00.311Z,10.1
2022-10-13T08:15:03.460Z,10.3
2022-10-13T08:16:00.311Z,10.7
2022-10-13T08:17:00.321Z,11.0
2022-10-13T08:18:00.388Z,10.6
2022-10-13T08:19:00.299Z,10.8
2022-10-13T08:20:00.329Z,11.4
2022-10-13T08:21:23.898Z,12.1
2022-10-13T08:22:00.606Z,12.6
2022-10-13T08:23:00.309Z,13.1
2022-10-13T08:24:00.391Z,13.1
2022-10-13T08:25:00.348Z,13.2
2022-10-13T08:26:00.297Z,13.1
2022-10-13T08:27:00.554Z,12.6
2022-10-13T08:28:00.700Z,11.7
2022-10-13T08:29:20.747Z,11.2
2022-10-13T08:30:00.371Z,11.1
2022-10-13T08:31:00.463Z,10.4
2022-10-13T08:32:00.348Z,9.5
2022-10-13T08:33:00.454Z,9.6
2022-10-13T08:34:00.282Z,9.1
2022-10-13T08:35:00.307Z,8.9
2022-10-13T08:36:00.344Z,9.5
2022-10-13T08:37:00.291Z,10.0
2022-10-13T08:38:00.330Z,10.5
2022-10-13T08:39:00.483Z,10.6
2022-10-13T08:40:00.308Z,11.0
2022-10-13T08:41:00.292Z,11.9
2022-10-13T08:42:00.342Z,12.4
2022-10-13T08:43:00.631Z,13.4
2022-10-13T08:44:39.578Z,14.1
2022-10-13T08:46:00.513Z,14.0
2022-10-13T08:47:00.311Z,13.8
2022-10-13T08:48:00.490Z,13.9
2022-10-13T08:49:00.328Z,13.6
2022-10-13T08:50:01.073Z,13.5
2022-10-13T08:51:00.421Z,13.5
2022-10-13T08:52:00.549Z,12.6
2022-10-13T08:53:00.327Z,13.1
2022-10-13T08:54:00.311Z,13.4
2022-10-13T08:55:00.311Z,13.5
2022-10-13T08:56:00.285Z,13.9
2022-10-13T08:58:00.553Z,14.2
2022-10-13T08:59:00.303Z,14.3
2022-10-13T09:00:00.345Z,14.3
2022-10-13T09:01:00.286Z,14.2
2022-10-13T09:02:00.375Z,13.9
2022-10-13T09:03:00.350Z,13.5
2022-10-13T09:04:00.409Z,13.3
2022-10-13T09:07:00.301Z,13.2
2022-10-13T09:08:00.353Z,14.0
2022-10-13T09:09:00.385Z,14.4
2022-10-13T09:10:00.441Z,14.9
2022-10-13T09:11:00.312Z,14.8
2022-10-13T09:12:00.305Z,14.8
2022-10-13T09:13:00.298Z,15.0
2022-10-13T09:14:00.341Z,15.3
2022-10-13T09:15:00.342Z,15.8
2022-10-13T09:16:00.507Z,15.6
2022-10-13T09:17:00.302Z,14.9
2022-10-13T09:18:00.389Z,15.1
2022-10-13T09:19:00.297Z,15.0
2022-10-13T09:20:00.281Z,15.2
2022-10-13T09:21:00.314Z,15.9
2022-10-13T09:22:00.448Z,16.0
2022-10-13T09:23:00.294Z,15.7
2022-10-13T09:24:00.296Z,16.1
2022-10-13T09:25:00.283Z,16.6
2022-10-13T09:26:00.283Z,16.7
2022-10-13T09:27:00.350Z,16.1
2022-10-13T09:28:00.509Z,16.3
2022-10-13T09:29:00.414Z,16.1
2022-10-13T09:30:00.299Z,16.7
2022-10-13T09:31:00.285Z,17.3
2022-10-13T09:32:00.312Z,17.6
2022-10-13T09:33:00.464Z,17.8
2022-10-13T09:34:00.431Z,17.8
2022-10-13T09:35:00.301Z,17.8
2022-10-13T09:36:00.382Z,18.0
2022-10-13T09:37:00.312Z,18.5
2022-10-13T09:38:00.310Z,18.5
2022-10-13T09:39:00.315Z,18.4
2022-10-13T09:40:00.554Z,18.5
2022-10-13T09:41:00.282Z,18.3
2022-10-13T09:42:00.285Z,18.2
2022-10-13T09:43:00.302Z,17.2
2022-10-13T09:44:00.315Z,15.8
2022-10-13T09:45:00.318Z,15.1
2022-10-13T09:46:00.430Z,13.3
2022-10-13T09:47:00.283Z,11.1
2022-10-13T09:48:00.429Z,9.5
2022-10-13T09:49:00.284Z,8.3
2022-10-13T09:50:04.851Z,8.5
2022-10-13T09:51:00.303Z,9.0
2022-10-13T09:52:00.587Z,9.4
2022-10-13T09:53:00.297Z,9.6
2022-10-13T09:54:00.297Z,10.8
2022-10-13T09:55:00.308Z,12.4
2022-10-13T09:56:00.298Z,13.5
2022-10-13T09:57:00.328Z,14.5
2022-10-13T09:58:00.424Z,15.1
2022-10-13T10:01:00.302Z,16.7
2022-10-13T10:02:00.316Z,17.0
2022-10-13T10:03:00.413Z,17.2
2022-10-13T10:04:00.658Z,17.4
2022-10-13T10:05:00.329Z,17.7
2022-10-13T10:06:00.403Z,17.8
2022-10-13T10:07:00.368Z,18.1
2022-10-13T10:08:00.306Z,18.6
2022-10-13T10:09:04.702Z,18.3
2022-10-13T10:10:00.560Z,17.6
2022-10-13T10:11:00.288Z,17.2
2022-10-13T10:12:00.314Z,17.3
2022-10-13T10:13:00.313Z,17.5
2022-10-13T10:14:00.299Z,16.9
2022-10-13T10:15:00.284Z,16.3
2022-10-13T10:16:00.453Z,15.8
2022-10-13T10:17:00.350Z,15.1
2022-10-13T10:18:00.377Z,15.2
2022-10-13T10:19:00.318Z,15.3
2022-10-13T10:20:00.311Z,15.9
2022-10-13T10:21:00.313Z,15.8
2022-10-13T10:22:00.463Z,15.9
2022-10-13T10:23:00.294Z,16.8
2022-10-13T10:24:00.313Z,17.5
2022-10-13T10:25:00.304Z,18.0
2022-10-13T10:26:00.318Z,18.8
2022-10-13T10:27:00.283Z,19.1
2022-10-13T10:28:00.437Z,19.4
2022-10-13T10:29:00.356Z,19.5
2022-10-13T10:30:00.331Z,19.3
2022-10-13T10:31:00.303Z,19.5
2022-10-13T10:32:00.301Z,19.6
2022-10-13T10:33:00.420Z,19.3
2022-10-13T10:34:00.596Z,19.3
2022-10-13T10:35:00.307Z,19.2
2022-10-13T10:36:00.305Z,19.4
2022-10-13T10:37:00.282Z,19.4
2022-10-13T10:38:00.313Z,19.7
2022-10-13T10:39:00.371Z,20.0
2022-10-13T10:40:00.977Z,20.1
2022-10-13T10:41:00.339Z,20.1
2022-10-13T10:42:00.296Z,20.0
2022-10-13T10:43:00.291Z,20.0
2022-10-13T10:44:00.380Z,20.3
2022-10-13T10:45:00.330Z,20.6
2022-10-13T10:46:00.454Z,20.7
2022-10-13T10:47:00.311Z,21.3
2022-10-13T10:48:00.429Z,21.0
2022-10-13T10:49:00.294Z,21.4
2022-10-13T10:50:00.358Z,21.5
2022-10-13T10:51:00.280Z,21.8
2022-10-13T10:52:00.492Z,21.9
2022-10-13T10:53:00.303Z,22.4
2022-10-13T10:54:00.299Z,22.9
2022-10-13T10:55:00.293Z,22.5
2022-10-13T10:56:00.293Z,22.8
2022-10-13T10:57:00.307Z,23.1
2022-10-13T10:58:00.421Z,23.4
2022-10-13T10:59:00.308Z,23.3
2022-10-13T11:00:00.303Z,23.1
2022-10-13T11:01:00.308Z,23.6
2022-10-13T11:02:00.281Z,23.3
2022-10-13T11:03:00.498Z,23.3
2022-10-13T11:04:00.502Z,23.6
2022-10-13T11:05:05.211Z,23.7
2022-10-13T11:06:00.312Z,23.7
2022-10-13T11:07:00.292Z,23.6
2022-10-13T11:08:00.296Z,23.6
2022-10-13T11:09:00.292Z,23.8
2022-10-13T11:10:00.451Z,24.2
2022-10-13T11:11:00.276Z,24.3
2022-10-13T11:12:00.292Z,24.4
2022-10-13T11:13:00.333Z,24.5
2022-10-13T11:14:00.370Z,24.3
2022-10-13T11:15:00.308Z,24.4
2022-10-13T11:16:00.546Z,24.2
2022-10-13T11:17:00.364Z,24.6
2022-10-13T11:18:00.414Z,24.6
2022-10-13T11:19:00.299Z,24.5
2022-10-13T11:20:00.283Z,24.3
2022-10-13T11:21:00.288Z,24.1
2022-10-13T11:22:00.580Z,24.2
2022-10-13T11:23:00.318Z,23.9
2022-10-13T11:24:02.249Z,24.0
2022-10-13T11:25:00.302Z,23.6
2022-10-13T11:26:00.297Z,23.5
2022-10-13T11:27:00.294Z,23.4
2022-10-13T11:28:00.522Z,23.3
2022-10-13T11:29:00.292Z,23.4
2022-10-13T11:30:00.353Z,23.4
2022-10-13T11:31:00.284Z,23.7
2022-10-13T11:32:00.301Z,24.1
2022-10-13T11:33:00.462Z,23.9
2022-10-13T11:34:00.588Z,24.0
2022-10-13T11:35:00.519Z,24.3
2022-10-13T11:36:00.299Z,24.6
2022-10-13T11:37:00.394Z,25.0
2022-10-13T11:38:07.426Z,25.1
2022-10-13T11:39:00.305Z,25.1
2022-10-13T11:40:00.443Z,25.2
2022-10-13T11:41:00.294Z,25.3
2022-10-13T11:42:00.295Z,25.6
2022-10-13T11:43:02.690Z,25.4
2022-10-13T11:44:00.314Z,25.5
2022-10-13T11:45:00.286Z,25.5
2022-10-13T11:46:00.449Z,25.3
2022-10-13T11:47:00.344Z,25.6
2022-10-13T11:48:00.618Z,25.6
2022-10-13T11:49:00.286Z,25.5
2022-10-13T11:50:00.274Z,25.7
2022-10-13T11:51:00.285Z,25.5
2022-10-13T11:52:00.491Z,25.6
2022-10-13T11:53:00.271Z,25.7
2022-10-13T11:54:00.355Z,25.6
2022-10-13T11:55:00.334Z,25.5
2022-10-13T11:56:00.275Z,25.3
2022-10-13T11:57:00.286Z,25.4
2022-10-13T11:58:00.457Z,25.1
2022-10-13T11:59:00.314Z,25.1
2022-10-13T12:00:00.299Z,25.0
2022-10-13T12:01:00.352Z,25.1
2022-10-13T12:02:00.294Z,25.0
2022-10-13T12:03:00.485Z,24.9
2022-10-13T12:04:00.385Z,24.6
2022-10-13T12:05:00.308Z,24.5
2022-10-13T12:06:00.289Z,24.6
2022-10-13T12:07:00.312Z,24.7
2022-10-13T12:08:00.471Z,24.6
2022-10-13T12:09:00.303Z,24.5
2022-10-13T12:10:00.614Z,24.7
2022-10-13T12:11:00.301Z,25.0
2022-10-13T12:12:00.304Z,25.2
2022-10-13T12:13:00.295Z,25.4
2022-10-13T12:14:00.315Z,25.6
2022-10-13T12:15:04.240Z,25.6
2022-10-13T12:16:00.439Z,25.9
2022-10-13T12:17:00.326Z,26.0
2022-10-13T12:18:00.623Z,26.2
2022-10-13T12:19:00.314Z,26.4
2022-10-13T12:20:00.364Z,26.8
2022-10-13T12:21:00.378Z,26.7
2022-10-13T12:22:00.518Z,26.8
2022-10-13T12:23:00.377Z,27.0
2022-10-13T12:24:00.286Z,27.3
2022-10-13T12:25:00.296Z,27.1
2022-10-13T12:26:00.339Z,27.2
2022-10-13T12:27:00.305Z,27.5
2022-10-13T12:28:00.422Z,27.7
2022-10-13T12:29:00.413Z,27.8
2022-10-13T12:30:00.306Z,27.9
2022-10-13T12:31:00.311Z,27.8
2022-10-13T12:32:00.309Z,27.3
2022-10-13T12:33:00.453Z,27.2
2022-10-13T12:34:00.428Z,27.5
2022-10-13T12:35:00.304Z,27.7
2022-10-13T12:36:00.303Z,27.1
2022-10-13T12:37:00.305Z,27.1
2022-10-13T12:38:00.334Z,27.2
2022-10-13T12:39:00.307Z,27.8
2022-10-13T12:40:00.688Z,27.6
2022-10-13T12:41:00.310Z,27.4
2022-10-13T12:42:00.320Z,28.3
2022-10-13T12:43:00.306Z,28.4
2022-10-13T12:44:03.889Z,28.6
2022-10-13T12:45:00.329Z,28.3
2022-10-13T12:46:00.456Z,28.4
2022-10-13T12:47:00.302Z,28.2
2022-10-13T12:48:00.566Z,28.5
2022-10-13T12:49:00.314Z,28.6
2022-10-13T12:50:00.376Z,28.7
2022-10-13T12:51:00.299Z,28.3
2022-10-13T12:52:00.465Z,28.2
2022-10-13T12:53:00.299Z,28.1
2022-10-13T12:54:00.335Z,28.4
2022-10-13T12:55:00.392Z,28.2
2022-10-13T12:56:00.321Z,28.2
2022-10-13T12:57:00.331Z,27.9
2022-10-13T12:58:00.636Z,28.1
2022-10-13T12:59:00.343Z,27.9
2022-10-13T13:00:00.337Z,27.6
2022-10-13T13:01:00.391Z,27.6
2022-10-13T13:02:00.286Z,27.8
2022-10-13T13:03:00.562Z,28.3
2022-10-13T13:04:00.670Z,28.1
2022-10-13T13:05:00.299Z,28.3
2022-10-13T13:06:00.798Z,28.3
2022-10-13T13:07:00.318Z,28.3
2022-10-13T13:08:00.643Z,28.0
2022-10-13T13:09:00.437Z,27.8
2022-10-13T13:10:00.514Z,27.8
2022-10-13T13:11:00.741Z,27.9
2022-10-13T13:12:00.409Z,27.7
2022-10-13T13:13:00.406Z,27.5
2022-10-13T13:14:00.338Z,27.6
2022-10-13T13:15:00.456Z,27.3
2022-10-13T13:16:00.728Z,27.2
2022-10-13T13:17:00.356Z,27.3
2022-10-13T13:18:00.570Z,27.5
2022-10-13T13:19:00.653Z,28.0
2022-10-13T13:20:00.283Z,27.9
2022-10-13T13:21:00.428Z,27.9
2022-10-13T13:22:00.433Z,27.6
2022-10-13T13:23:00.333Z,27.5
2022-10-13T13:24:01.573Z,27.8
2022-10-13T13:25:00.323Z,28.1
2022-10-13T13:26:00.279Z,28.6
2022-10-13T13:27:00.295Z,28.6